sensor_id;sensor_type;location;lat;lon;timestamp;temperature;humidity
63960;DHT22;50136;51.374;0.096;2022-09-04T00:05:31;16.60;99.90
63960;DHT22;50136;51.374;0.096;2022-09-04T00:15:39;16.50;99.90
63960;DHT22;50136;51.374;0.096;2022-09-04T00:25:48;16.50;99.90
63960;DHT22;50136;51.374;0.096;2022-09-04T00:35:59;16.50;99.90
63960;DHT22;50136;51.374;0.096;2022-09-04T00:57:14;16.40;99.90
63960;DHT22;50136;51.374;0.096;2022-09-04T01:07:34;16.30;99.90
63960;DHT22;50136;51.374;0.096;2022-09-04T01:17:52;16.30;99.90
63960;DHT22;50136;51.374;0.096;2022-09-04T01:28:01;16.20;99.90
63960;DHT22;50136;51.374;0.096;2022-09-04T01:38:13;16.20;99.90
63960;DHT22;50136;51.374;0.096;2022-09-04T01:48:22;16.20;99.90
63960;DHT22;50136;51.374;0.096;2022-09-04T01:58:35;16.10;99.90
63960;DHT22;50136;51.374;0.096;2022-09-04T02:08:55;16.10;99.90
63960;DHT22;50136;51.374;0.096;2022-09-04T02:19:02;16.00;99.90
63960;DHT22;50136;51.374;0.096;2022-09-04T02:29:16;16.10;99.90
63960;DHT22;50136;51.374;0.096;2022-09-04T02:39:30;16.00;99.90
63960;DHT22;50136;51.374;0.096;2022-09-04T02:49:44;16.10;99.90
63960;DHT22;50136;51.374;0.096;2022-09-04T02:59:57;16.10;99.90
63960;DHT22;50136;51.374;0.096;2022-09-04T03:10:08;16.10;99.90
63960;DHT22;50136;51.374;0.096;2022-09-04T03:20:16;16.00;99.90
63960;DHT22;50136;51.374;0.096;2022-09-04T03:30:21;15.90;99.90
63960;DHT22;50136;51.374;0.096;2022-09-04T03:40:33;15.90;99.90
63960;DHT22;50136;51.374;0.096;2022-09-04T03:50:43;15.90;99.90
63960;DHT22;50136;51.374;0.096;2022-09-04T04:00:57;15.90;99.90
63960;DHT22;50136;51.374;0.096;2022-09-04T04:11:18;16.00;99.90
63960;DHT22;50136;51.374;0.096;2022-09-04T04:21:30;16.10;99.90
63960;DHT22;50136;51.374;0.096;2022-09-04T04:31:50;16.40;99.90
63960;DHT22;50136;51.374;0.096;2022-09-04T04:42:03;16.70;99.90
63960;DHT22;50136;51.374;0.096;2022-09-04T04:52:27;16.80;99.90
63960;DHT22;50136;51.374;0.096;2022-09-04T05:02:35;16.90;99.90
63960;DHT22;50136;51.374;0.096;2022-09-04T05:12:47;16.90;99.90
63960;DHT22;50136;51.374;0.096;2022-09-04T05:22:59;17.00;99.90
63960;DHT22;50136;51.374;0.096;2022-09-04T05:33:10;17.00;99.90
63960;DHT22;50136;51.374;0.096;2022-09-04T05:43:23;17.10;99.90
63960;DHT22;50136;51.374;0.096;2022-09-04T06:04:21;17.10;99.90
63960;DHT22;50136;51.374;0.096;2022-09-04T06:14:42;17.10;99.90
63960;DHT22;50136;51.374;0.096;2022-09-04T06:24:58;17.20;99.90
63960;DHT22;50136;51.374;0.096;2022-09-04T06:45:51;17.50;99.90
63960;DHT22;50136;51.374;0.096;2022-09-04T06:56:24;17.70;99.90
63960;DHT22;50136;51.374;0.096;2022-09-04T07:06:42;18.00;99.90
63960;DHT22;50136;51.374;0.096;2022-09-04T07:16:56;18.30;99.90
63960;DHT22;50136;51.374;0.096;2022-09-04T07:27:05;18.40;99.90
63960;DHT22;50136;51.374;0.096;2022-09-04T07:37:20;18.40;99.90
63960;DHT22;50136;51.374;0.096;2022-09-04T07:47:30;18.60;99.90
63960;DHT22;50136;51.374;0.096;2022-09-04T08:08:46;19.30;99.90
63960;DHT22;50136;51.374;0.096;2022-09-04T08:19:00;19.70;99.90
63960;DHT22;50136;51.374;0.096;2022-09-04T08:39:42;20.20;99.90
63960;DHT22;50136;51.374;0.096;2022-09-04T08:50:04;20.60;99.90
63960;DHT22;50136;51.374;0.096;2022-09-04T09:00:13;21.20;99.90
63960;DHT22;50136;51.374;0.096;2022-09-04T09:11:09;22.00;99.90
63960;DHT22;50136;51.374;0.096;2022-09-04T09:21:27;22.70;99.90
63960;DHT22;50136;51.374;0.096;2022-09-04T09:31:59;22.90;99.90
63960;DHT22;50136;51.374;0.096;2022-09-04T09:42:41;22.60;99.90
63960;DHT22;50136;51.374;0.096;2022-09-04T09:53:25;22.20;99.90
63960;DHT22;50136;51.374;0.096;2022-09-04T10:03:58;21.90;99.90
63960;DHT22;50136;51.374;0.096;2022-09-04T10:25:19;22.30;99.90
63960;DHT22;50136;51.374;0.096;2022-09-04T10:35:24;22.40;99.90
63960;DHT22;50136;51.374;0.096;2022-09-04T10:45:31;22.30;99.90
63960;DHT22;50136;51.374;0.096;2022-09-04T10:57:51;22.30;99.90
63960;DHT22;50136;51.374;0.096;2022-09-04T11:07:50;22.10;99.90
63960;DHT22;50136;51.374;0.096;2022-09-04T11:18:26;22.30;99.90
63960;DHT22;50136;51.374;0.096;2022-09-04T11:29:04;22.80;99.90
63960;DHT22;50136;51.374;0.096;2022-09-04T11:39:54;23.60;99.90
63960;DHT22;50136;51.374;0.096;2022-09-04T11:50:14;23.70;99.90
63960;DHT22;50136;51.374;0.096;2022-09-04T12:00:19;23.70;99.50
63960;DHT22;50136;51.374;0.096;2022-09-04T12:10:33;23.70;99.90
63960;DHT22;50136;51.374;0.096;2022-09-04T12:21:00;24.20;99.50
63960;DHT22;50136;51.374;0.096;2022-09-04T12:42:06;23.90;99.90
63960;DHT22;50136;51.374;0.096;2022-09-04T12:52:23;24.10;98.90
63960;DHT22;50136;51.374;0.096;2022-09-04T13:13:12;24.00;98.60
63960;DHT22;50136;51.374;0.096;2022-09-04T13:23:26;24.20;98.90
63960;DHT22;50136;51.374;0.096;2022-09-04T13:33:43;24.10;99.40
63960;DHT22;50136;51.374;0.096;2022-09-04T13:44:19;24.20;98.80
63960;DHT22;50136;51.374;0.096;2022-09-04T13:54:30;24.00;99.30
63960;DHT22;50136;51.374;0.096;2022-09-04T14:04:39;23.70;99.80
63960;DHT22;50136;51.374;0.096;2022-09-04T14:25:20;24.00;99.20
63960;DHT22;50136;51.374;0.096;2022-09-04T14:35:32;24.40;98.70
63960;DHT22;50136;51.374;0.096;2022-09-04T14:46:00;24.10;98.60
63960;DHT22;50136;51.374;0.096;2022-09-04T14:56:22;24.10;98.80
63960;DHT22;50136;51.374;0.096;2022-09-04T15:06:29;24.30;98.30
63960;DHT22;50136;51.374;0.096;2022-09-04T15:16:53;23.90;99.30
63960;DHT22;50136;51.374;0.096;2022-09-04T15:27:01;23.90;98.60
63960;DHT22;50136;51.374;0.096;2022-09-04T15:37:18;24.50;98.30
63960;DHT22;50136;51.374;0.096;2022-09-04T15:47:48;24.20;98.70
63960;DHT22;50136;51.374;0.096;2022-09-04T15:58:02;24.30;97.50
63960;DHT22;50136;51.374;0.096;2022-09-04T16:08:16;23.90;98.10
63960;DHT22;50136;51.374;0.096;2022-09-04T16:18:37;23.80;97.90
63960;DHT22;50136;51.374;0.096;2022-09-04T16:28:43;23.70;97.40
63960;DHT22;50136;51.374;0.096;2022-09-04T16:38:52;23.30;98.30
63960;DHT22;50136;51.374;0.096;2022-09-04T16:49:01;23.10;99.10
63960;DHT22;50136;51.374;0.096;2022-09-04T16:59:21;23.10;99.20
63960;DHT22;50136;51.374;0.096;2022-09-04T17:09:29;23.50;99.00
63960;DHT22;50136;51.374;0.096;2022-09-04T17:19:33;23.70;99.20
63960;DHT22;50136;51.374;0.096;2022-09-04T17:29:39;23.00;99.90
63960;DHT22;50136;51.374;0.096;2022-09-04T17:39:52;22.60;99.90
63960;DHT22;50136;51.374;0.096;2022-09-04T17:50:19;22.30;99.90
63960;DHT22;50136;51.374;0.096;2022-09-04T18:00:26;22.10;99.90
63960;DHT22;50136;51.374;0.096;2022-09-04T18:10:33;21.80;99.90
63960;DHT22;50136;51.374;0.096;2022-09-04T18:20:42;21.50;99.90
63960;DHT22;50136;51.374;0.096;2022-09-04T18:30:58;21.40;99.90
63960;DHT22;50136;51.374;0.096;2022-09-04T18:41:27;21.20;99.90
63960;DHT22;50136;51.374;0.096;2022-09-04T18:51:55;21.10;99.90
63960;DHT22;50136;51.374;0.096;2022-09-04T19:02:03;21.00;99.90
63960;DHT22;50136;51.374;0.096;2022-09-04T19:12:09;20.80;99.90
63960;DHT22;50136;51.374;0.096;2022-09-04T19:22:18;20.70;99.90
63960;DHT22;50136;51.374;0.096;2022-09-04T19:32:33;20.70;99.90
63960;DHT22;50136;51.374;0.096;2022-09-04T19:42:42;20.60;99.90
63960;DHT22;50136;51.374;0.096;2022-09-04T19:53:23;20.40;99.90
63960;DHT22;50136;51.374;0.096;2022-09-04T20:03:53;20.30;99.90
63960;DHT22;50136;51.374;0.096;2022-09-04T20:13:59;20.20;99.90
63960;DHT22;50136;51.374;0.096;2022-09-04T20:24:19;20.10;99.90
63960;DHT22;50136;51.374;0.096;2022-09-04T20:34:30;20.00;99.90
63960;DHT22;50136;51.374;0.096;2022-09-04T20:44:40;19.90;99.90
63960;DHT22;50136;51.374;0.096;2022-09-04T20:55:13;19.60;99.90
63960;DHT22;50136;51.374;0.096;2022-09-04T21:05:41;19.30;99.90
63960;DHT22;50136;51.374;0.096;2022-09-04T21:15:51;19.20;99.90
63960;DHT22;50136;51.374;0.096;2022-09-04T21:26:06;19.00;99.90
63960;DHT22;50136;51.374;0.096;2022-09-04T21:36:17;18.90;99.90
63960;DHT22;50136;51.374;0.096;2022-09-04T21:46:50;18.80;99.90
63960;DHT22;50136;51.374;0.096;2022-09-04T21:57:15;18.80;99.90
63960;DHT22;50136;51.374;0.096;2022-09-04T22:07:47;18.70;99.90
63960;DHT22;50136;51.374;0.096;2022-09-04T22:18:25;18.50;99.90
63960;DHT22;50136;51.374;0.096;2022-09-04T22:39:45;18.50;99.90
63960;DHT22;50136;51.374;0.096;2022-09-04T23:00:54;18.40;99.90
63960;DHT22;50136;51.374;0.096;2022-09-04T23:11:12;18.30;99.90
63960;DHT22;50136;51.374;0.096;2022-09-04T23:21:45;18.10;99.90
63960;DHT22;50136;51.374;0.096;2022-09-04T23:32:25;18.10;99.90
63960;DHT22;50136;51.374;0.096;2022-09-04T23:42:55;18.20;99.90
63960;DHT22;50136;51.374;0.096;2022-09-04T23:53:08;18.20;99.90
